Time;durP1;ratioP1;P1;durP2;ratioP2;P2;SDS_P1;SDS_P2;PMS_P1;PMS_P2;Temp;Humidity;BMP_temperature;BMP_pressure;BME280_temperature;BME280_humidity;BME280_pressure;Samples;Min_cycle;Max_cycle;Signal;HPM_P1;HPM_P2
2021/07/26 02:48:00;;;;;;;;;;;17.60;99.90;;;;;;5;36020531;39060221;-84
2021/07/26 02:51:13;;;;;;;;;;;17.50;99.90;;;;;;5;36020959;39024248;-83
2021/07/26 02:54:27;;;;;;;;;;;17.40;99.90;;;;;;5;36019698;39772734;-84
2021/07/26 02:57:37;;;;;;;;;;;17.50;99.90;;;;;;5;36018197;39020363;-84
2021/07/26 03:00:50;;;;;;;;;;;17.50;99.90;;;;;;5;36019579;39021365;-85
2021/07/26 03:04:02;;;;;;;;;;;17.50;99.90;;;;;;5;36019337;39024169;-82
2021/07/26 03:07:15;;;;;;;;;;;17.50;99.90;;;;;;5;36019283;39021172;-86
2021/07/26 03:10:25;;;;;;;;;;;17.50;99.90;;;;;;5;36019683;39021343;-83
2021/07/26 03:13:41;;;;;;;;;;;17.50;99.90;;;;;;5;36017997;39021615;-83
2021/07/26 03:16:54;;;;;;;;;;;17.40;99.90;;;;;;5;36019039;39020348;-83
2021/07/26 03:20:07;;;;;;;;;;;17.30;99.90;;;;;;5;36019335;39021790;-83
2021/07/26 03:23:17;;;;;;;;;;;17.30;99.90;;;;;;5;36018274;39020967;-84
2021/07/26 03:26:31;;;;;;;;;;;17.40;99.90;;;;;;5;36018251;39772022;-86
2021/07/26 03:29:43;;;;;;;;;;;17.30;99.90;;;;;;5;36018242;39020754;-84
2021/07/26 03:32:56;;;;;;;;;;;17.30;99.90;;;;;;5;36018751;39021605;-85
2021/07/26 03:36:06;;;;;;;;;;;17.20;99.90;;;;;;5;36017067;39020814;-86
2021/07/26 03:39:19;;;;;;;;;;;17.30;99.90;;;;;;5;36019061;39021144;-85
2021/07/26 03:42:35;;;;;;;;;;;17.30;99.90;;;;;;5;36016789;39021106;-85
2021/07/26 03:45:47;;;;;;;;;;;17.20;99.90;;;;;;5;36019029;39021101;-86
2021/07/26 03:48:57;;;;;;;;;;;17.10;99.90;;;;;;5;36017638;39020204;-85
2021/07/26 03:52:10;;;;;;;;;;;17.20;99.90;;;;;;5;36019199;39022385;-85
2021/07/26 03:55:30;;;;;;;;;;;17.20;99.90;;;;;;5;36019120;39021398;-85
2021/07/26 03:58:44;;;;;;;;;;;17.20;99.90;;;;;;5;36019007;39771903;-85
2021/07/26 04:01:57;;;;;;;;;;;17.20;99.90;;;;;;5;36017928;39020815;-85
2021/07/26 04:05:18;;;;;;;;;;;17.10;99.90;;;;;;5;36019208;39030790;-84
2021/07/26 04:08:35;;;;;;;;;;;17.20;99.90;;;;;;5;36017705;39023298;-86
2021/07/26 04:11:52;;;;;;;;;;;17.20;99.90;;;;;;5;36019919;39021072;-86
2021/07/26 04:15:08;;;;;;;;;;;17.20;99.90;;;;;;5;36016608;39020475;-85
2021/07/26 04:18:20;;;;;;;;;;;17.10;99.90;;;;;;5;36019384;39021871;-86
2021/07/26 04:21:33;;;;;;;;;;;17.00;99.90;;;;;;5;36018045;39022286;-82
2021/07/26 04:24:46;;;;;;;;;;;17.00;99.90;;;;;;5;36017156;39019863;-85
2021/07/26 04:27:55;;;;;;;;;;;16.90;99.90;;;;;;5;36018892;39019589;-85
2021/07/26 04:31:10;;;;;;;;;;;16.90;99.90;;;;;;5;36015630;39770123;-83
2021/07/26 04:34:22;;;;;;;;;;;16.80;99.90;;;;;;5;36017940;39021582;-81
2021/07/26 04:37:35;;;;;;;;;;;16.70;99.90;;;;;;5;36015326;39019578;-84
2021/07/26 04:40:45;;;;;;;;;;;16.70;99.90;;;;;;5;36018701;39021079;-84
2021/07/26 04:43:58;;;;;;;;;;;16.70;99.90;;;;;;5;36018324;39022262;-86
2021/07/26 04:47:10;;;;;;;;;;;16.70;99.90;;;;;;5;36018657;39020817;-86
2021/07/26 04:50:23;;;;;;;;;;;16.60;99.90;;;;;;5;36018475;39021223;-85
2021/07/26 04:53:33;;;;;;;;;;;16.60;99.90;;;;;;5;36019962;39020485;-83
2021/07/26 04:56:46;;;;;;;;;;;16.60;99.90;;;;;;5;36018370;39020989;-85
2021/07/26 04:59:58;;;;;;;;;;;16.60;99.90;;;;;;5;36017509;39021035;-84
2021/07/26 05:03:12;;;;;;;;;;;16.60;99.90;;;;;;5;36018955;39770982;-85
2021/07/26 05:06:22;;;;;;;;;;;16.60;99.90;;;;;;5;36018131;39020281;-86
2021/07/26 05:09:37;;;;;;;;;;;16.70;99.90;;;;;;5;36018569;39020053;-85
2021/07/26 05:12:49;;;;;;;;;;;16.70;99.90;;;;;;5;36017345;39022298;-82
2021/07/26 05:16:02;;;;;;;;;;;16.70;99.90;;;;;;5;36018319;39021264;-85
2021/07/26 05:19:12;;;;;;;;;;;16.70;99.90;;;;;;5;36018572;39020640;-84
2021/07/26 05:22:24;;;;;;;;;;;16.60;99.90;;;;;;5;36017464;39021119;-85
2021/07/26 05:25:44;;;;;;;;;;;16.70;99.90;;;;;;5;36019401;39022170;-86
2021/07/26 05:28:57;;;;;;;;;;;16.60;99.90;;;;;;5;36018574;39021474;-84
2021/07/26 05:32:06;;;;;;;;;;;16.60;99.90;;;;;;5;36018175;39018853;-84
2021/07/26 05:35:21;;;;;;;;;;;16.60;99.90;;;;;;5;36015884;39769001;-85
2021/07/26 05:38:33;;;;;;;;;;;16.70;99.90;;;;;;5;36017399;39019337;-86
2021/07/26 05:41:46;;;;;;;;;;;16.70;99.90;;;;;;5;36019205;39021355;-86
2021/07/26 05:44:56;;;;;;;;;;;16.80;99.90;;;;;;5;36019483;39022736;-83
2021/07/26 05:48:09;;;;;;;;;;;16.90;99.90;;;;;;5;36015727;39018284;-83
2021/07/26 05:51:21;;;;;;;;;;;16.90;99.90;;;;;;5;36019749;39021863;-86
2021/07/26 05:54:34;;;;;;;;;;;17.00;99.90;;;;;;5;36018926;39019961;-86
2021/07/26 05:57:46;;;;;;;;;;;17.00;99.90;;;;;;5;36016786;39022216;-83
2021/07/26 06:04:30;;;;;;;;;;;17.30;99.90;;;;;;5;36019651;39020556;-85
2021/07/26 06:07:44;;;;;;;;;;;17.40;99.90;;;;;;5;36019794;39770754;-85
2021/07/26 06:10:54;;;;;;;;;;;17.60;99.90;;;;;;5;36018083;39020877;-85
2021/07/26 06:14:07;;;;;;;;;;;17.90;99.90;;;;;;5;36020098;39022678;-86
2021/07/26 06:17:20;;;;;;;;;;;18.20;99.90;;;;;;5;36019375;39020856;-86
2021/07/26 06:20:32;;;;;;;;;;;18.40;99.90;;;;;;5;36016546;39020794;-83
2021/07/26 06:23:42;;;;;;;;;;;18.60;99.90;;;;;;5;36017442;39018711;-85
2021/07/26 06:26:55;;;;;;;;;;;18.80;99.90;;;;;;5;36016849;39018425;-86
2021/07/26 06:30:08;;;;;;;;;;;19.10;99.90;;;;;;5;36017449;39019508;-83
2021/07/26 06:33:28;;;;;;;;;;;19.40;99.90;;;;;;5;36018697;39019158;-83
2021/07/26 06:36:39;;;;;;;;;;;19.60;99.90;;;;;;5;36017539;39018414;-84
2021/07/26 06:39:54;;;;;;;;;;;20.00;99.90;;;;;;5;36016758;39767468;-85
2021/07/26 06:43:06;;;;;;;;;;;20.30;99.90;;;;;;5;36017931;39020086;-85
2021/07/26 06:46:20;;;;;;;;;;;20.50;99.90;;;;;;5;36016191;39018836;-84
2021/07/26 06:49:29;;;;;;;;;;;20.60;99.90;;;;;;5;36019282;39020760;-84
2021/07/26 06:52:42;;;;;;;;;;;20.80;99.90;;;;;;5;36016559;39020560;-83
2021/07/26 06:55:57;;;;;;;;;;;21.00;99.90;;;;;;5;36015906;39020123;-85
2021/07/26 06:59:09;;;;;;;;;;;21.20;98.10;;;;;;5;36016584;39018113;-84
2021/07/26 07:02:19;;;;;;;;;;;21.50;98.50;;;;;;5;36020138;39020172;-86
2021/07/26 07:05:32;;;;;;;;;;;21.70;95.60;;;;;;5;36015820;39020691;-85
2021/07/26 07:08:45;;;;;;;;;;;21.80;94.00;;;;;;5;36016729;39018614;-86
2021/07/26 07:12:01;;;;;;;;;;;21.90;95.40;;;;;;5;36016224;39769240;-85
2021/07/26 07:15:11;;;;;;;;;;;21.80;97.30;;;;;;5;36016575;39018196;-85
2021/07/26 07:18:24;;;;;;;;;;;21.90;96.40;;;;;;5;36016572;39018552;-83
2021/07/26 07:21:37;;;;;;;;;;;22.00;93.50;;;;;;5;36016652;39018959;-83
2021/07/26 07:24:49;;;;;;;;;;;22.10;94.70;;;;;;5;36018274;39019587;-84
2021/07/26 07:27:59;;;;;;;;;;;22.20;95.30;;;;;;5;36017838;39021278;-85
2021/07/26 07:31:13;;;;;;;;;;;22.40;93.80;;;;;;5;36016235;39020711;-86
2021/07/26 07:34:25;;;;;;;;;;;22.50;93.00;;;;;;5;36016281;39020304;-84
2021/07/26 07:37:39;;;;;;;;;;;22.60;91.90;;;;;;5;36016244;39019937;-85
2021/07/26 07:40:49;;;;;;;;;;;22.50;90.40;;;;;;5;36017183;39021880;-84
2021/07/26 07:44:03;;;;;;;;;;;22.60;90.50;;;;;;5;36019457;39769882;-85
2021/07/26 07:47:16;;;;;;;;;;;22.60;88.60;;;;;;5;36015446;39018791;-86
2021/07/26 07:50:29;;;;;;;;;;;22.60;88.70;;;;;;5;36018127;39020905;-85
2021/07/26 07:53:38;;;;;;;;;;;22.80;87.90;;;;;;5;36016582;39019259;-84
2021/07/26 07:56:52;;;;;;;;;;;23.00;86.70;;;;;;5;36018277;39020082;-84
2021/07/26 08:00:06;;;;;;;;;;;23.30;87.50;;;;;;5;36018065;39019145;-85
2021/07/26 08:03:56;;;;;;;;;;;23.80;85.40;;;;;;5;36015661;39019769;-87
2021/07/26 08:07:05;;;;;;;;;;;24.30;81.80;;;;;;5;36016140;39019593;-87
2021/07/26 08:10:18;;;;;;;;;;;24.60;79.20;;;;;;5;36017211;39020666;-85
2021/07/26 08:13:35;;;;;;;;;;;25.30;79.20;;;;;;5;36017989;39020702;-87
2021/07/26 08:16:49;;;;;;;;;;;26.10;75.10;;;;;;5;36017648;39769853;-84
2021/07/26 08:19:58;;;;;;;;;;;26.80;72.80;;;;;;5;36018484;39020341;-83
2021/07/26 08:23:12;;;;;;;;;;;27.00;69.20;;;;;;5;36019302;39020618;-88
2021/07/26 08:26:25;;;;;;;;;;;27.70;70.40;;;;;;5;36016283;39020686;-84
2021/07/26 08:29:37;;;;;;;;;;;28.10;73.10;;;;;;5;36016785;39021369;-85
2021/07/26 08:32:47;;;;;;;;;;;28.20;73.20;;;;;;5;36017672;39019978;-85
2021/07/26 08:36:00;;;;;;;;;;;28.20;72.90;;;;;;5;36017305;39021564;-85
2021/07/26 08:39:13;;;;;;;;;;;27.90;71.90;;;;;;5;36016917;39022104;-84
2021/07/26 08:42:25;;;;;;;;;;;27.40;72.90;;;;;;5;36017095;39019524;-82
2021/07/26 08:45:36;;;;;;;;;;;26.90;73.80;;;;;;5;36017869;39019954;-86
2021/07/26 08:48:50;;;;;;;;;;;26.50;75.00;;;;;;5;36018114;39769271;-86
2021/07/26 08:52:03;;;;;;;;;;;26.30;75.90;;;;;;5;36017000;39019012;-86
2021/07/26 08:55:21;;;;;;;;;;;26.40;76.20;;;;;;5;36015683;39018857;-85
2021/07/26 08:58:30;;;;;;;;;;;26.40;75.70;;;;;;5;36018108;39020563;-86
2021/07/26 09:01:44;;;;;;;;;;;26.20;76.00;;;;;;5;36017181;39021328;-86
2021/07/26 09:04:56;;;;;;;;;;;26.30;76.00;;;;;;5;36019482;39020019;-85
2021/07/26 09:08:09;;;;;;;;;;;26.40;74.90;;;;;;5;36017034;39021061;-87
2021/07/26 09:11:19;;;;;;;;;;;26.70;74.30;;;;;;5;36018399;39021851;-86
2021/07/26 09:14:36;;;;;;;;;;;27.20;72.80;;;;;;5;36017672;39020911;-86
2021/07/26 09:17:49;;;;;;;;;;;27.60;72.50;;;;;;5;36018669;39020318;-85
2021/07/26 09:21:03;;;;;;;;;;;28.70;70.10;;;;;;5;36019218;39768758;-86
2021/07/26 09:24:12;;;;;;;;;;;31.00;65.00;;;;;;5;36018202;39019438;-85
2021/07/26 09:27:25;;;;;;;;;;;33.50;58.80;;;;;;5;36018481;39021126;-88
2021/07/26 09:30:39;;;;;;;;;;;34.00;56.40;;;;;;5;36018689;39020288;-87
2021/07/26 09:33:53;;;;;;;;;;;35.10;53.50;;;;;;5;36017076;39021628;-86
2021/07/26 09:37:15;;;;;;;;;;;34.90;53.60;;;;;;5;36017458;39020133;-84
2021/07/26 09:40:32;;;;;;;;;;;34.20;53.40;;;;;;5;36021392;39020807;-88
2021/07/26 09:43:45;;;;;;;;;;;33.20;54.60;;;;;;5;36018565;39019942;-88
2021/07/26 09:47:17;;;;;;;;;;;32.50;56.20;;;;;;5;36017282;39020365;-87
2021/07/26 09:50:34;;;;;;;;;;;32.10;57.30;;;;;;5;36017334;39020823;-87
2021/07/26 09:53:49;;;;;;;;;;;33.20;55.40;;;;;;5;36018130;39770160;-86
2021/07/26 09:57:14;;;;;;;;;;;35.50;52.50;;;;;;5;36017760;39019931;-88
2021/07/26 10:00:27;;;;;;;;;;;38.00;49.20;;;;;;5;36020284;39019229;-87
2021/07/26 10:03:41;;;;;;;;;;;37.60;46.40;;;;;;5;36019189;39021204;-84
2021/07/26 10:06:55;;;;;;;;;;;36.00;48.20;;;;;;5;36018875;39019426;-86
2021/07/26 10:10:09;;;;;;;;;;;34.50;51.00;;;;;;5;36020228;39020249;-86
2021/07/26 10:13:21;;;;;;;;;;;33.10;53.10;;;;;;5;36017891;39019180;-88
2021/07/26 10:16:31;;;;;;;;;;;32.20;54.90;;;;;;5;36019933;39020949;-86
2021/07/26 10:19:44;;;;;;;;;;;33.80;53.80;;;;;;5;36017586;39020077;-85
2021/07/26 10:22:59;;;;;;;;;;;36.40;49.00;;;;;;5;36017430;39022126;-88
2021/07/26 10:26:15;;;;;;;;;;;37.80;47.50;;;;;;5;36017554;39769914;-86
2021/07/26 10:29:43;;;;;;;;;;;39.20;44.40;;;;;;5;36017478;39019581;-86
2021/07/26 10:33:02;;;;;;;;;;;39.70;43.40;;;;;;5;36017466;39019507;-87
2021/07/26 10:36:34;;;;;;;;;;;39.60;42.80;;;;;;5;36018617;39019569;-89
2021/07/26 10:40:05;;;;;;;;;;;39.70;42.30;;;;;;5;36017972;39020994;-85
2021/07/26 10:43:31;;;;;;;;;;;39.80;42.10;;;;;;5;36019116;39020316;-86
2021/07/26 10:46:53;;;;;;;;;;;40.30;41.00;;;;;;5;36017497;39020128;-88
2021/07/26 10:50:18;;;;;;;;;;;41.80;40.70;;;;;;5;36019049;39019773;-85
2021/07/26 10:53:34;;;;;;;;;;;42.70;37.90;;;;;;5;36019224;39020458;-86
2021/07/26 10:57:12;;;;;;;;;;;42.90;37.80;;;;;;5;36019048;39021285;-86
2021/07/26 11:00:26;;;;;;;;;;;43.10;37.80;;;;;;5;36018699;39769850;-86
2021/07/26 11:03:42;;;;;;;;;;;42.40;36.80;;;;;;5;36015853;39018540;-88
2021/07/26 11:06:55;;;;;;;;;;;42.70;37.30;;;;;;5;36016753;39019132;-85
2021/07/26 11:10:05;;;;;;;;;;;42.40;37.70;;;;;;5;36015959;39018046;-88
2021/07/26 11:13:17;;;;;;;;;;;42.40;37.90;;;;;;5;36018874;39020564;-86
2021/07/26 11:16:49;;;;;;;;;;;42.00;38.00;;;;;;5;36017415;39019302;-89
2021/07/26 11:20:02;;;;;;;;;;;42.20;37.60;;;;;;5;36017795;39018938;-86
2021/07/26 11:23:32;;;;;;;;;;;42.30;37.30;;;;;;5;36015733;39020070;-87
2021/07/26 11:26:48;;;;;;;;;;;40.90;37.60;;;;;;5;36018262;39021071;-87
2021/07/26 11:30:00;;;;;;;;;;;39.70;39.40;;;;;;5;36016236;39020044;-90
2021/07/26 11:33:15;;;;;;;;;;;39.10;40.20;;;;;;5;36015026;39766369;-87
2021/07/26 11:36:24;;;;;;;;;;;39.30;41.20;;;;;;5;36015738;39016741;-88
2021/07/26 11:39:46;;;;;;;;;;;39.60;40.90;;;;;;5;36014686;39016620;-89
2021/07/26 11:42:59;;;;;;;;;;;39.30;40.40;;;;;;5;36016052;39016403;-88
2021/07/26 11:46:11;;;;;;;;;;;38.50;41.50;;;;;;5;36017145;39020253;-87
2021/07/26 11:49:21;;;;;;;;;;;38.90;40.80;;;;;;5;36018900;39020642;-90
2021/07/26 11:52:34;;;;;;;;;;;38.90;40.50;;;;;;5;36016438;39020468;-88
2021/07/26 11:55:47;;;;;;;;;;;39.00;40.00;;;;;;5;36016875;39019163;-87
2021/07/26 11:59:19;;;;;;;;;;;38.80;40.10;;;;;;5;36017908;39021163;-88
2021/07/26 12:02:31;;;;;;;;;;;38.80;39.40;;;;;;5;36016579;39022188;-89
2021/07/26 12:05:45;;;;;;;;;;;38.10;40.80;;;;;;5;36018404;39770771;-87
2021/07/26 12:08:58;;;;;;;;;;;37.60;41.90;;;;;;5;36018215;39020780;-87
2021/07/26 12:12:11;;;;;;;;;;;36.70;42.60;;;;;;5;36020206;39020672;-87
2021/07/26 12:15:21;;;;;;;;;;;36.20;43.50;;;;;;5;36016682;39019960;-87
2021/07/26 12:18:34;;;;;;;;;;;35.60;43.90;;;;;;5;36018089;39021270;-86
2021/07/26 12:21:47;;;;;;;;;;;34.50;45.40;;;;;;5;36018498;39020730;-89
2021/07/26 12:25:00;;;;;;;;;;;33.40;47.80;;;;;;5;36017758;39020489;-86
2021/07/26 12:28:10;;;;;;;;;;;32.40;49.10;;;;;;5;36018161;39021645;-87
2021/07/26 12:31:33;;;;;;;;;;;31.80;50.90;;;;;;5;36018115;39020036;-87
2021/07/26 12:35:22;;;;;;;;;;;31.40;51.20;;;;;;5;36018090;39019916;-86
2021/07/26 12:38:37;;;;;;;;;;;30.90;49.90;;;;;;5;36018967;39769890;-85
2021/07/26 12:41:50;;;;;;;;;;;30.30;53.20;;;;;;5;36016610;39021157;-85
2021/07/26 12:45:22;;;;;;;;;;;29.70;55.10;;;;;;5;36016049;39018671;-85
2021/07/26 12:48:36;;;;;;;;;;;29.20;56.10;;;;;;5;36017560;39020622;-86
2021/07/26 12:51:50;;;;;;;;;;;30.70;54.60;;;;;;5;36018241;39021062;-86
2021/07/26 12:55:00;;;;;;;;;;;31.70;51.20;;;;;;5;36018104;39019398;-85
2021/07/26 12:58:16;;;;;;;;;;;31.70;51.10;;;;;;5;36018059;39020735;-87
2021/07/26 13:01:29;;;;;;;;;;;32.70;48.40;;;;;;5;36017230;39019449;-84
2021/07/26 13:04:41;;;;;;;;;;;33.20;47.40;;;;;;5;36016260;39019897;-85
2021/07/26 13:07:51;;;;;;;;;;;34.00;47.10;;;;;;5;36016833;39020142;-86
2021/07/26 13:11:05;;;;;;;;;;;34.60;46.60;;;;;;5;36015247;39769135;-86
2021/07/26 13:14:18;;;;;;;;;;;35.40;46.20;;;;;;5;36016611;39018463;-87
2021/07/26 13:17:31;;;;;;;;;;;35.70;46.10;;;;;;5;36016899;39019508;-86
2021/07/26 13:20:41;;;;;;;;;;;36.10;44.70;;;;;;5;36018032;39020197;-85
2021/07/26 13:23:54;;;;;;;;;;;36.60;44.40;;;;;;5;36017128;39019915;-87
2021/07/26 13:27:06;;;;;;;;;;;36.80;44.10;;;;;;5;36019053;39020316;-87
2021/07/26 13:30:19;;;;;;;;;;;36.30;43.80;;;;;;5;36018170;39020996;-87
2021/07/26 13:33:29;;;;;;;;;;;35.30;45.40;;;;;;5;36018969;39020453;-88
2021/07/26 13:36:42;;;;;;;;;;;34.70;46.50;;;;;;5;36017125;39020227;-87
2021/07/26 13:39:54;;;;;;;;;;;33.60;48.20;;;;;;5;36016984;39020017;-85
2021/07/26 13:43:09;;;;;;;;;;;32.90;49.60;;;;;;5;36018797;39770142;-85
2021/07/26 13:46:18;;;;;;;;;;;32.10;50.80;;;;;;5;36018858;39019842;-86
2021/07/26 13:49:32;;;;;;;;;;;31.40;51.20;;;;;;5;36017818;39020959;-85
2021/07/26 13:52:44;;;;;;;;;;;31.00;51.90;;;;;;5;36016137;39021598;-83
2021/07/26 13:55:57;;;;;;;;;;;30.60;53.00;;;;;;5;36017237;39018884;-84
2021/07/26 13:59:07;;;;;;;;;;;30.00;53.80;;;;;;5;36017274;39019283;-83
2021/07/26 14:02:20;;;;;;;;;;;29.10;55.10;;;;;;5;36017506;39019717;-85
2021/07/26 14:05:33;;;;;;;;;;;28.60;56.10;;;;;;5;36015689;39020121;-86
2021/07/26 14:08:46;;;;;;;;;;;28.10;56.00;;;;;;5;36017250;39020306;-85
2021/07/26 14:11:57;;;;;;;;;;;27.40;56.40;;;;;;5;36017582;39020449;-85
2021/07/26 14:15:11;;;;;;;;;;;27.00;56.50;;;;;;5;36018208;39769755;-86
2021/07/26 14:18:24;;;;;;;;;;;26.50;58.60;;;;;;5;36017671;39020715;-87
2021/07/26 14:21:36;;;;;;;;;;;26.20;59.80;;;;;;5;36015615;39019890;-86
2021/07/26 14:24:46;;;;;;;;;;;25.80;61.10;;;;;;5;36017932;39019939;-86
2021/07/26 14:28:00;;;;;;;;;;;25.30;64.40;;;;;;5;36019543;39020479;-86
2021/07/26 14:31:12;;;;;;;;;;;24.40;71.70;;;;;;5;36017371;39019757;-86
2021/07/26 14:34:25;;;;;;;;;;;23.70;75.90;;;;;;5;36017671;39021664;-85
2021/07/26 14:37:35;;;;;;;;;;;23.40;77.50;;;;;;5;36017852;39020388;-84
2021/07/26 14:40:48;;;;;;;;;;;23.20;79.50;;;;;;5;36016948;39021175;-84
2021/07/26 14:44:01;;;;;;;;;;;22.90;79.70;;;;;;5;36018462;39021042;-85
2021/07/26 14:47:15;;;;;;;;;;;22.60;82.30;;;;;;5;36018531;39771255;-85
2021/07/26 14:50:25;;;;;;;;;;;22.40;84.10;;;;;;5;36018895;39022711;-85
2021/07/26 14:53:38;;;;;;;;;;;22.10;85.80;;;;;;5;36017984;39020585;-86
2021/07/26 14:56:51;;;;;;;;;;;21.90;85.70;;;;;;5;36018756;39020983;-84
2021/07/26 15:00:04;;;;;;;;;;;21.70;87.60;;;;;;5;36018736;39020209;-84
2021/07/26 15:03:14;;;;;;;;;;;21.70;89.70;;;;;;5;36017827;39022810;-85
2021/07/26 15:06:26;;;;;;;;;;;21.50;91.20;;;;;;5;36018807;39022133;-85
2021/07/26 15:09:39;;;;;;;;;;;21.30;92.20;;;;;;5;36018557;39020498;-86
2021/07/26 15:12:52;;;;;;;;;;;21.20;93.20;;;;;;5;36018412;39020965;-84
2021/07/26 15:16:02;;;;;;;;;;;21.10;94.70;;;;;;5;36017730;39021505;-85
2021/07/26 15:19:16;;;;;;;;;;;21.00;95.20;;;;;;5;36018603;39770483;-85
2021/07/26 15:22:29;;;;;;;;;;;21.10;96.30;;;;;;5;36019701;39019700;-86
2021/07/26 15:25:42;;;;;;;;;;;21.20;96.80;;;;;;5;36017458;39021003;-87
2021/07/26 15:28:52;;;;;;;;;;;21.40;99.20;;;;;;5;36020649;39020804;-85
2021/07/26 15:32:08;;;;;;;;;;;21.50;99.00;;;;;;5;36016557;39020664;-87
2021/07/26 15:35:21;;;;;;;;;;;21.60;96.80;;;;;;5;36018051;39020764;-86
2021/07/26 15:38:33;;;;;;;;;;;21.30;97.40;;;;;;5;36019080;39020989;-85
2021/07/26 15:41:43;;;;;;;;;;;21.10;98.50;;;;;;5;36018639;39020407;-85
2021/07/26 15:44:55;;;;;;;;;;;21.00;99.00;;;;;;5;36017553;39021201;-85
2021/07/26 15:48:08;;;;;;;;;;;20.90;99.40;;;;;;5;36016946;39020495;-85
2021/07/26 15:51:22;;;;;;;;;;;21.10;99.90;;;;;;5;36018266;39770271;-83
2021/07/26 15:54:33;;;;;;;;;;;21.50;99.80;;;;;;5;36017706;39021088;-87
2021/07/26 15:57:45;;;;;;;;;;;21.60;98.50;;;;;;5;36019076;39021885;-87
2021/07/26 16:00:58;;;;;;;;;;;21.60;94.40;;;;;;5;36017485;39020056;-86
2021/07/26 16:04:11;;;;;;;;;;;21.30;92.50;;;;;;5;36018830;39021080;-86
2021/07/26 16:07:21;;;;;;;;;;;21.30;91.30;;;;;;5;36018607;39021391;-86
2021/07/26 16:10:33;;;;;;;;;;;21.20;92.10;;;;;;5;36017303;39020624;-86
2021/07/26 16:13:46;;;;;;;;;;;21.30;91.00;;;;;;5;36018141;39021006;-85
2021/07/26 16:16:58;;;;;;;;;;;21.10;90.90;;;;;;5;36018001;39021873;-85
2021/07/26 16:20:08;;;;;;;;;;;20.90;90.50;;;;;;5;36017587;39021358;-86
2021/07/26 16:23:23;;;;;;;;;;;20.80;90.40;;;;;;5;36017786;39771152;-87
2021/07/26 16:26:35;;;;;;;;;;;20.80;89.40;;;;;;5;36016043;39020831;-87
2021/07/26 16:29:48;;;;;;;;;;;20.70;89.50;;;;;;5;36019293;39020225;-86
2021/07/26 16:32:57;;;;;;;;;;;20.70;90.60;;;;;;5;36020954;39020634;-86
2021/07/26 16:36:10;;;;;;;;;;;20.60;88.50;;;;;;5;36017171;39020467;-86
2021/07/26 16:39:23;;;;;;;;;;;20.80;90.30;;;;;;5;36019262;39019922;-85
2021/07/26 16:42:36;;;;;;;;;;;20.90;87.70;;;;;;5;36018602;39020462;-85
2021/07/26 16:45:46;;;;;;;;;;;20.70;86.90;;;;;;5;36018551;39020683;-86
2021/07/26 16:48:58;;;;;;;;;;;20.50;88.30;;;;;;5;36018739;39019979;-86
2021/07/26 16:52:11;;;;;;;;;;;20.40;87.40;;;;;;5;36017750;39022189;-87
2021/07/26 16:55:25;;;;;;;;;;;20.40;87.60;;;;;;5;36017042;39769382;-86
2021/07/26 16:58:35;;;;;;;;;;;20.40;88.20;;;;;;5;36018163;39021599;-85
2021/07/26 17:01:47;;;;;;;;;;;20.40;86.70;;;;;;5;36017818;39020001;-85
2021/07/26 17:05:00;;;;;;;;;;;20.40;87.30;;;;;;5;36018815;39021398;-86
2021/07/26 17:08:13;;;;;;;;;;;20.30;87.50;;;;;;5;36017934;39021536;-85
2021/07/26 17:11:22;;;;;;;;;;;20.30;86.70;;;;;;5;36020867;39021920;-85
2021/07/26 17:14:35;;;;;;;;;;;20.30;88.10;;;;;;5;36018978;39020927;-86
2021/07/26 17:17:48;;;;;;;;;;;20.20;88.60;;;;;;5;36020054;39020816;-85
2021/07/26 17:21:00;;;;;;;;;;;20.10;90.00;;;;;;5;36019771;39021184;-84
2021/07/26 17:24:10;;;;;;;;;;;20.00;90.30;;;;;;5;36018825;39019330;-86
2021/07/26 17:27:24;;;;;;;;;;;19.90;91.30;;;;;;5;36017510;39769586;-85
2021/07/26 17:30:37;;;;;;;;;;;19.80;91.20;;;;;;5;36017169;39021123;-84
2021/07/26 17:33:50;;;;;;;;;;;19.80;92.00;;;;;;5;36016715;39021381;-83
2021/07/26 17:37:00;;;;;;;;;;;19.70;92.10;;;;;;5;36018546;39021325;-84
2021/07/26 17:40:13;;;;;;;;;;;19.60;93.20;;;;;;5;36018221;39021405;-84
2021/07/26 17:43:25;;;;;;;;;;;19.50;94.10;;;;;;5;36017522;39019467;-82
2021/07/26 17:46:39;;;;;;;;;;;19.40;94.70;;;;;;5;36018547;39021764;-85
2021/07/26 17:49:48;;;;;;;;;;;19.30;95.30;;;;;;5;36018326;39020046;-84
2021/07/26 17:53:01;;;;;;;;;;;19.20;96.10;;;;;;5;36018954;39020907;-86
2021/07/26 17:56:14;;;;;;;;;;;19.20;95.80;;;;;;5;36017463;39021414;-83
2021/07/26 17:59:28;;;;;;;;;;;19.20;96.10;;;;;;5;36017122;39769919;-84
2021/07/26 18:02:37;;;;;;;;;;;19.30;96.80;;;;;;5;36019203;39019955;-85
2021/07/26 18:05:54;;;;;;;;;;;19.40;95.90;;;;;;5;36015892;39020005;-89
2021/07/26 18:09:07;;;;;;;;;;;19.50;96.00;;;;;;5;36018675;39020532;-88
2021/07/26 18:12:19;;;;;;;;;;;19.60;96.20;;;;;;5;36018286;39019812;-86
2021/07/26 18:15:29;;;;;;;;;;;19.70;96.50;;;;;;5;36017811;39020023;-85
2021/07/26 18:18:42;;;;;;;;;;;19.70;95.90;;;;;;5;36017605;39021285;-85
2021/07/26 18:21:57;;;;;;;;;;;19.80;96.60;;;;;;5;36018259;39020996;-88
2021/07/26 18:25:10;;;;;;;;;;;19.80;95.20;;;;;;5;36017706;39020706;-87
2021/07/26 18:28:20;;;;;;;;;;;19.80;95.70;;;;;;5;36018160;39021029;-87
2021/07/26 18:31:34;;;;;;;;;;;19.80;95.90;;;;;;5;36018302;39770810;-88
2021/07/26 18:34:46;;;;;;;;;;;19.90;96.10;;;;;;5;36017241;39020336;-89
2021/07/26 18:37:59;;;;;;;;;;;19.90;95.70;;;;;;5;36019418;39020358;-87
2021/07/26 18:41:09;;;;;;;;;;;19.90;95.90;;;;;;5;36018556;39020033;-88
2021/07/26 18:44:22;;;;;;;;;;;19.80;96.60;;;;;;5;36018316;39021148;-88
2021/07/26 18:47:35;;;;;;;;;;;19.80;96.70;;;;;;5;36019745;39022515;-87
2021/07/26 18:50:48;;;;;;;;;;;19.70;97.10;;;;;;5;36017302;39020329;-86
2021/07/26 18:53:58;;;;;;;;;;;19.60;98.80;;;;;;5;36018104;39019917;-87
2021/07/26 18:57:10;;;;;;;;;;;19.50;99.90;;;;;;5;36016948;39020692;-90
2021/07/26 19:00:23;;;;;;;;;;;19.30;99.90;;;;;;5;36018025;39021212;-88
2021/07/26 19:03:37;;;;;;;;;;;19.20;99.90;;;;;;5;36019022;39770530;-89
2021/07/26 19:06:47;;;;;;;;;;;19.10;99.90;;;;;;5;36018817;39020877;-87
2021/07/26 19:10:00;;;;;;;;;;;19.10;99.90;;;;;;5;36015035;39020400;-88
2021/07/26 19:17:06;;;;;;;;;;;18.80;99.90;;;;;;5;36014832;39018373;-87
2021/07/26 19:20:23;;;;;;;;;;;18.80;99.90;;;;;;5;36017556;39019582;-89
2021/07/26 19:23:36;;;;;;;;;;;18.80;99.90;;;;;;5;36013336;39018144;-87
2021/07/26 19:26:49;;;;;;;;;;;18.70;99.90;;;;;;5;36017306;39018947;-86
2021/07/26 19:30:03;;;;;;;;;;;18.70;99.90;;;;;;5;36013800;39018053;-89
2021/07/26 19:33:13;;;;;;;;;;;18.60;99.90;;;;;;5;36017494;39020016;-89
2021/07/26 19:36:32;;;;;;;;;;;18.60;99.90;;;;;;5;36017864;39769447;-89
2021/07/26 19:39:44;;;;;;;;;;;18.60;99.90;;;;;;5;36017598;39020145;-88
2021/07/26 19:42:57;;;;;;;;;;;18.60;99.90;;;;;;5;36019490;39020821;-89
2021/07/26 19:46:07;;;;;;;;;;;18.60;99.90;;;;;;5;36019214;39022447;-88
2021/07/26 19:49:20;;;;;;;;;;;18.60;99.90;;;;;;5;36020191;39020518;-88
2021/07/26 19:52:33;;;;;;;;;;;18.60;99.90;;;;;;5;36019811;39020716;-88
2021/07/26 19:55:46;;;;;;;;;;;18.60;99.90;;;;;;5;36018175;39021581;-89
2021/07/26 19:58:55;;;;;;;;;;;18.60;99.90;;;;;;5;36018422;39019825;-88
2021/07/26 20:02:08;;;;;;;;;;;18.60;99.90;;;;;;5;36020592;39021728;-88
2021/07/26 20:05:21;;;;;;;;;;;18.60;99.90;;;;;;5;36019171;39020110;-88
2021/07/26 20:08:35;;;;;;;;;;;18.60;99.90;;;;;;5;36018513;39770091;-87
2021/07/26 20:11:44;;;;;;;;;;;18.60;99.90;;;;;;5;36018944;39020921;-88
2021/07/26 20:14:57;;;;;;;;;;;18.50;99.90;;;;;;5;36016668;39021001;-88
2021/07/26 20:18:10;;;;;;;;;;;18.50;99.90;;;;;;5;36019043;39022840;-88
2021/07/26 20:21:22;;;;;;;;;;;18.50;99.90;;;;;;5;36017981;39020929;-87
2021/07/26 20:24:32;;;;;;;;;;;18.50;99.90;;;;;;5;36020287;39020701;-88
2021/07/26 20:27:45;;;;;;;;;;;18.40;99.90;;;;;;5;36018628;39019807;-88
2021/07/26 20:30:58;;;;;;;;;;;18.40;99.90;;;;;;5;36020962;39021045;-86
2021/07/26 20:34:10;;;;;;;;;;;18.30;99.90;;;;;;5;36017838;39021167;-86
2021/07/26 20:37:20;;;;;;;;;;;18.20;99.90;;;;;;5;36019063;39020981;-87
2021/07/26 20:40:34;;;;;;;;;;;18.10;99.90;;;;;;5;36019363;39770579;-86
2021/07/26 20:43:48;;;;;;;;;;;18.10;99.90;;;;;;5;36018143;39021452;-86
2021/07/26 20:47:00;;;;;;;;;;;18.10;99.90;;;;;;5;36018400;39022592;-87
2021/07/26 20:50:11;;;;;;;;;;;18.10;99.90;;;;;;5;36019227;39021210;-85
2021/07/26 20:53:24;;;;;;;;;;;18.10;99.90;;;;;;5;36021152;39021742;-87